Not for real navigation | The accuracy of this data is not assured | See disclaimer for more information
ICAO NAME COUNTRY WIND Kt GUST Kt VIS TEMP/DEW BARO
CYLL Lloydminister, Alta. Canada 8 0 400 -12/-14 29.89
CYLL 310700Z AUTO 35008KT 340V050 0.25SM +SN VV004 M12/M14 A2989 RMK SLP174
LKLN 4 0 500 -2/-4 30.33
LKLN 310713Z AUTO 02004KT 340V060 0500 SN VV007 M02/M04 Q1027
EFKE Kemi Finland 21 33 750 -2/-3 29.53
EFKE 310650Z AUTO 20021G33KT 0750 R18/1000D SN OVC005 M02/M03 Q1000
KBTM BERT MOONEY AIRPORT MT United States 5 0 800 -1/-2 29.86
KBTM 310704Z AUTO 35005KT 0.5SM SN FZFG VV004 M01/M02 A2986 RMK AO2 P0001 T10061022
KMPV KNAPP STATE AIRPORT VT United States 0 0 800 0/-1 30.07
KMPV 310658Z AUTO 00000KT 0.5SM -SN FG BKN004 BKN012 OVC017 00/M01 A3007 RMK AO2 P0000 T00001006

Show more

Close Menu